Time;durP1;ratioP1;P1;durP2;ratioP2;P2;SDS_P1;SDS_P2;PMS_P1;PMS_P2;Temp;Humidity;BMP_temperature;BMP_pressure;BME280_temperature;BME280_humidity;BME280_pressure;Samples;Min_cycle;Max_cycle;Signal;HPM_P1;HPM_P2
2023/11/21 00:01:52;;;;;;;21.52;8.70;;;;;;;4.80;74.93;93741.94;4887634;29;20348;-80
2023/11/21 00:04:17;;;;;;;40.72;17.00;;;;;;;4.81;75.63;93742.72;4887828;29;20016;-80
2023/11/21 00:06:43;;;;;;;22.95;8.90;;;;;;;4.90;75.47;93742.91;4888765;29;20031;-79
2023/11/21 00:09:09;;;;;;;27.50;10.40;;;;;;;4.89;75.28;93738.69;4888767;29;20024;-80
2023/11/21 00:11:35;;;;;;;23.27;9.95;;;;;;;4.90;75.38;93738.41;4888741;29;20035;-82
2023/11/21 00:14:00;;;;;;;23.15;9.10;;;;;;;4.89;75.38;93743.97;4888705;29;20256;-81
2023/11/21 00:16:25;;;;;;;15.75;6.03;;;;;;;4.92;75.38;93744.19;4888575;29;20353;-82
2023/11/21 00:18:51;;;;;;;19.33;8.95;;;;;;;4.93;75.06;93743.13;4888591;29;20024;-82
2023/11/21 00:21:16;;;;;;;23.27;8.23;;;;;;;4.88;75.52;93740.53;4888600;29;20025;-82
2023/11/21 00:23:42;;;;;;;17.85;8.07;;;;;;;4.80;75.58;93743.78;4888429;29;20036;-82
2023/11/21 00:26:08;;;;;;;22.45;9.82;;;;;;;4.76;76.07;93740.13;4888642;29;20025;-82
2023/11/21 00:28:33;;;;;;;24.50;9.77;;;;;;;4.75;76.18;93734.06;4887341;29;20032;-81
2023/11/21 00:30:58;;;;;;;23.42;8.80;;;;;;;4.72;76.36;93724.06;4888398;29;20043;-81
2023/11/21 00:33:25;;;;;;;20.30;10.02;;;;;;;4.75;76.46;93730.66;4888551;29;20032;-81
2023/11/21 00:35:50;;;;;;;25.60;9.70;;;;;;;4.71;76.49;93724.34;4888503;29;20021;-82
2023/11/21 00:38:19;;;;;;;18.35;9.05;;;;;;;4.70;76.76;93733.31;4888745;29;20055;-80
2023/11/21 00:40:45;;;;;;;26.85;9.65;;;;;;;4.71;76.64;93725.13;4888279;29;20028;-80
2023/11/21 00:43:10;;;;;;;25.58;9.88;;;;;;;4.61;76.82;93731.28;4888336;29;20097;-80
2023/11/21 00:45:36;;;;;;;23.23;10.32;;;;;;;4.66;76.55;93729.66;4888422;29;20255;-80
2023/11/21 00:48:04;;;;;;;27.70;9.75;;;;;;;4.60;76.75;93732.38;4888290;29;20021;-80
2023/11/21 00:50:30;;;;;;;19.38;8.95;;;;;;;4.57;76.92;93735.53;4888436;29;20311;-80
2023/11/21 00:52:55;;;;;;;23.33;8.98;;;;;;;4.55;77.07;93737.69;4888206;29;20096;-79
2023/11/21 00:55:21;;;;;;;22.33;9.20;;;;;;;4.55;76.94;93732.41;4888367;29;20021;-79
2023/11/21 00:57:47;;;;;;;22.77;8.90;;;;;;;4.54;76.63;93719.47;4887194;29;20017;-78
2023/11/21 01:00:17;;;;;;;19.73;7.93;;;;;;;4.52;77.04;93727.69;4888228;29;20330;-79
2023/11/21 01:02:46;;;;;;;23.02;8.43;;;;;;;4.49;76.88;93715.03;4888178;29;20073;-81
2023/11/21 01:05:12;;;;;;;19.23;8.20;;;;;;;4.52;76.96;93725.06;4888207;29;20060;-80
2023/11/21 01:07:37;;;;;;;19.52;8.32;;;;;;;4.52;76.67;93719.78;4888211;29;20051;-81
2023/11/21 01:10:07;;;;;;;22.00;8.80;;;;;;;4.53;76.45;93712.63;4890417;29;20088;-81
2023/11/21 01:12:34;;;;;;;26.23;9.43;;;;;;;4.51;76.66;93702.34;4891701;29;20025;-80
2023/11/21 01:15:00;;;;;;;21.58;8.73;;;;;;;4.52;76.41;93709.22;4891822;29;20029;-81
2023/11/21 01:17:26;;;;;;;17.45;8.98;;;;;;;4.49;76.51;93712.41;4891705;29;20070;-81
2023/11/21 01:19:51;;;;;;;21.77;9.25;;;;;;;4.52;76.28;93717.13;4891361;29;20214;-80
2023/11/21 01:22:17;;;;;;;22.00;8.75;;;;;;;4.50;76.23;93719.25;4891727;29;20029;-81
2023/11/21 01:24:43;;;;;;;21.75;9.48;;;;;;;4.51;76.19;93718.19;4890508;29;20024;-80
2023/11/21 01:27:08;;;;;;;22.98;9.55;;;;;;;4.42;76.32;93722.50;4891510;29;20021;-81
2023/11/21 01:29:35;;;;;;;20.10;8.45;;;;;;;4.37;76.28;93719.91;4891442;29;20024;-80
2023/11/21 01:32:03;;;;;;;20.60;8.82;;;;;;;4.38;76.41;93722.25;4891396;29;20021;-81
2023/11/21 01:34:29;;;;;;;19.27;8.50;;;;;;;4.39;76.39;93709.84;4891260;29;20078;-85
2023/11/21 01:36:54;;;;;;;19.83;7.95;;;;;;;4.39;76.36;93702.72;4890193;29;20045;-81
2023/11/21 01:39:23;;;;;;;15.70;8.27;;;;;;;4.39;76.25;93705.34;4891366;29;20056;-81
2023/11/21 01:41:50;;;;;;;19.33;8.23;;;;;;;4.38;76.40;93716.97;4891300;29;20044;-81
2023/11/21 01:44:16;;;;;;;13.85;6.88;;;;;;;4.36;76.24;93715.69;4890245;29;20261;-80
2023/11/21 01:46:42;;;;;;;11.52;5.75;;;;;;;4.33;76.38;93716.22;4891159;29;20024;-80
2023/11/21 01:49:10;;;;;;;19.20;7.35;;;;;;;4.30;76.71;93722.84;4891210;29;20072;-80
2023/11/21 01:51:36;;;;;;;17.63;7.15;;;;;;;4.28;76.12;93711.03;4889893;29;20032;-80
2023/11/21 01:54:05;;;;;;;17.08;7.43;;;;;;;4.21;76.36;93709.50;4890854;29;20112;-80
2023/11/21 01:56:31;;;;;;;14.82;7.05;;;;;;;4.13;76.62;93706.63;4890985;29;20032;-81
2023/11/21 01:58:57;;;;;;;16.85;8.23;;;;;;;4.12;76.81;93705.06;4890763;29;20315;-80
2023/11/21 02:01:23;;;;;;;19.00;8.35;;;;;;;4.14;76.91;93718.78;4890749;29;20104;-80
2023/11/21 02:03:48;;;;;;;16.98;7.03;;;;;;;4.12;76.98;93702.44;4891159;29;20029;-80
2023/11/21 02:06:14;;;;;;;11.38;6.75;;;;;;;4.13;77.14;93704.81;4890802;29;20028;-80
2023/11/21 02:08:39;;;;;;;16.73;8.32;;;;;;;4.11;76.86;93708.75;4890810;29;20029;-80
2023/11/21 02:11:06;;;;;;;18.13;8.25;;;;;;;4.10;77.10;93709.84;4890943;29;20612;-80
2023/11/21 02:13:32;;;;;;;21.30;8.02;;;;;;;4.10;77.14;93713.25;4890477;29;20028;-80
2023/11/21 02:15:58;;;;;;;21.10;8.25;;;;;;;4.06;77.43;93714.88;4890714;29;20025;-79
2023/11/21 02:18:23;;;;;;;14.52;6.47;;;;;;;4.09;77.30;93709.06;4890756;29;20307;-80
2023/11/21 02:20:49;;;;;;;19.58;7.28;;;;;;;4.04;77.28;93708.31;4890490;29;20084;-80
2023/11/21 02:23:14;;;;;;;14.27;6.75;;;;;;;4.00;77.40;93705.41;4890503;29;20033;-80
2023/11/21 02:25:42;;;;;;;15.05;6.85;;;;;;;4.00;77.04;93705.41;4889481;29;20036;-80
2023/11/21 02:28:08;;;;;;;25.40;8.07;;;;;;;3.98;77.76;93708.31;4890486;29;20024;-80
2023/11/21 02:30:33;;;;;;;17.58;7.10;;;;;;;3.99;77.54;93709.91;4890318;29;20383;-80
2023/11/21 02:33:00;;;;;;;17.05;7.97;;;;;;;3.85;77.77;93700.25;4890431;29;20096;-80
2023/11/21 02:35:26;;;;;;;17.05;7.43;;;;;;;3.90;77.90;93702.84;4890340;29;20044;-80
2023/11/21 02:37:52;;;;;;;13.23;5.78;;;;;;;3.90;77.86;93694.94;4889088;29;20065;-80
2023/11/21 02:40:18;;;;;;;13.60;7.75;;;;;;;3.90;77.77;93702.84;4890400;29;20033;-80
2023/11/21 02:42:53;;;;;;;14.70;6.68;;;;;;;3.93;77.73;93694.38;4890137;29;20025;-80
2023/11/21 02:45:24;;;;;;;16.08;6.90;;;;;;;3.87;77.97;93703.38;4890498;29;20223;-80
2023/11/21 02:47:49;;;;;;;18.80;7.97;;;;;;;3.83;78.08;93697.91;4890188;29;20029;-80
2023/11/21 02:50:15;;;;;;;13.25;7.20;;;;;;;3.81;77.98;93692.91;4889924;29;20044;-80
2023/11/21 02:52:40;;;;;;;19.65;8.63;;;;;;;3.81;78.28;93694.75;4889919;29;20124;-81
2023/11/21 02:55:09;;;;;;;16.60;7.10;;;;;;;3.82;78.39;93710.28;4889930;29;20239;-80
2023/11/21 02:57:34;;;;;;;15.15;6.85;;;;;;;3.77;78.39;93694.50;4888749;29;20122;-80
2023/11/21 03:00:00;;;;;;;17.42;7.78;;;;;;;3.74;78.47;93696.91;4889846;29;20021;-80
2023/11/21 03:02:26;;;;;;;19.98;8.95;;;;;;;3.78;78.33;93688.16;4888622;29;20056;-78
2023/11/21 03:04:51;;;;;;;30.10;9.90;;;;;;;3.78;78.30;93690.00;4889824;29;20027;-78
2023/11/21 03:07:20;;;;;;;26.30;9.27;;;;;;;3.78;78.37;93677.63;4889903;29;20100;-78
2023/11/21 03:09:45;;;;;;;27.92;9.15;;;;;;;3.80;78.58;93693.94;4889821;29;20020;-78
2023/11/21 03:12:14;;;;;;;22.95;8.48;;;;;;;3.80;78.40;93691.31;4889469;29;20068;-78
2023/11/21 03:14:40;;;;;;;23.73;8.32;;;;;;;3.79;78.42;93697.66;4889733;29;20032;-78
2023/11/21 03:17:06;;;;;;;21.63;7.38;;;;;;;3.74;78.49;93684.50;4889571;29;20025;-78
2023/11/21 03:19:32;;;;;;;15.88;5.55;;;;;;;3.74;78.42;93700.31;4889481;29;20092;-77
2023/11/21 03:21:57;;;;;;;16.95;5.75;;;;;;;3.66;78.79;93705.38;4889438;29;20029;-77
2023/11/21 03:24:23;;;;;;;17.52;7.22;;;;;;;3.61;79.42;93709.63;4889302;29;20053;-77
2023/11/21 03:26:48;;;;;;;12.93;5.72;;;;;;;3.71;79.37;93708.78;4889543;29;20412;-78
2023/11/21 03:29:14;;;;;;;13.90;5.30;;;;;;;3.77;79.24;93710.31;4889466;29;20021;-78
2023/11/21 03:31:40;;;;;;;15.60;6.13;;;;;;;3.80;78.93;93715.03;4888817;29;20037;-78
2023/11/21 03:34:06;;;;;;;13.05;5.15;;;;;;;3.76;78.75;93711.38;4889192;29;20097;-78
2023/11/21 03:36:31;;;;;;;8.32;4.85;;;;;;;3.75;78.87;93709.81;4889258;29;20025;-79
2023/11/21 03:38:57;;;;;;;13.88;5.43;;;;;;;3.67;79.27;93705.13;4887968;29;20024;-79
2023/11/21 03:41:22;;;;;;;10.93;5.03;;;;;;;3.73;79.17;93711.94;4889137;29;20017;-79
2023/11/21 03:43:48;;;;;;;9.35;4.47;;;;;;;3.77;78.94;93705.06;4889233;29;20025;-79
2023/11/21 03:46:13;;;;;;;9.80;4.57;;;;;;;3.74;79.13;93695.03;4889003;29;20021;-79
2023/11/21 03:48:39;;;;;;;10.70;4.78;;;;;;;3.77;79.03;93688.44;4887780;29;20036;-78
2023/11/21 03:51:05;;;;;;;15.85;6.30;;;;;;;3.81;79.01;93677.06;4889038;29;20020;-78
2023/11/21 03:53:30;;;;;;;10.43;5.20;;;;;;;3.84;79.15;93680.22;4888661;29;20391;-77
2023/11/21 03:55:55;;;;;;;14.82;6.25;;;;;;;3.86;78.92;93678.09;4888819;29;20157;-78
2023/11/21 03:58:21;;;;;;;25.25;5.65;;;;;;;3.85;78.88;93677.31;4888930;29;20069;-80
2023/11/21 04:00:48;;;;;;;13.40;5.82;;;;;;;3.88;78.82;93683.88;4888795;29;20025;-78
2023/11/21 04:03:15;;;;;;;20.77;8.27;;;;;;;3.88;78.84;93681.25;4888696;29;20029;-79
2023/11/21 04:05:41;;;;;;;15.45;6.70;;;;;;;3.89;78.95;93680.16;4888848;29;20247;-79
2023/11/21 04:08:06;;;;;;;13.93;6.93;;;;;;;3.91;78.86;93670.13;4888709;29;20035;-80
2023/11/21 04:10:32;;;;;;;13.45;6.45;;;;;;;3.90;78.90;93677.28;4888754;29;20044;-80
2023/11/21 04:12:59;;;;;;;16.85;7.05;;;;;;;3.91;78.82;93691.22;4889004;29;20105;-80
2023/11/21 04:15:24;;;;;;;17.95;6.25;;;;;;;3.92;78.98;93669.88;4888631;29;20021;-80
2023/11/21 04:17:50;;;;;;;13.27;7.10;;;;;;;3.93;78.99;93668.81;4887583;29;20168;-80
2023/11/21 04:20:15;;;;;;;17.98;7.97;;;;;;;3.93;78.94;93668.81;4887530;29;20024;-80
2023/11/21 04:22:44;;;;;;;17.27;7.05;;;;;;;3.91;79.02;93664.88;4887449;29;20108;-80
2023/11/21 04:25:11;;;;;;;15.50;6.75;;;;;;;3.94;78.82;93670.38;4888709;29;20111;-80
2023/11/21 04:27:39;;;;;;;20.42;7.15;;;;;;;3.96;78.88;93670.13;4888573;29;20029;-79
2023/11/21 04:30:05;;;;;;;12.98;6.20;;;;;;;3.95;78.75;93666.69;4888440;29;20025;-79
2023/11/21 04:32:30;;;;;;;16.35;6.35;;;;;;;3.97;78.82;93666.44;4888499;29;20227;-79
2023/11/21 04:34:56;;;;;;;14.73;6.32;;;;;;;3.97;78.81;93674.34;4888521;29;20036;-79
2023/11/21 04:37:22;;;;;;;14.43;6.18;;;;;;;3.97;78.93;93680.41;4888401;29;20033;-79
2023/11/21 04:39:48;;;;;;;13.70;5.70;;;;;;;3.99;78.97;93680.13;4888641;29;20227;-80
2023/11/21 04:42:13;;;;;;;15.45;6.30;;;;;;;3.96;78.92;93668.25;4889027;29;20043;-79
2023/11/21 04:44:40;;;;;;;13.50;6.03;;;;;;;3.95;78.84;93671.97;4892361;29;20071;-79
2023/11/21 04:47:07;;;;;;;14.65;6.68;;;;;;;3.94;78.51;93682.78;4892268;29;20082;-79
2023/11/21 04:49:33;;;;;;;10.65;4.22;;;;;;;3.90;78.60;93669.34;4890980;29;20259;-79
2023/11/21 04:51:59;;;;;;;9.18;4.50;;;;;;;3.84;78.91;93674.94;4892208;29;20033;-79
2023/11/21 04:54:24;;;;;;;10.02;5.28;;;;;;;3.82;78.78;93681.28;4891869;29;20238;-79
2023/11/21 04:56:50;;;;;;;11.68;4.97;;;;;;;3.70;79.15;93683.47;4892299;29;20100;-79
2023/11/21 04:59:15;;;;;;;14.68;6.90;;;;;;;3.64;79.48;93681.94;4892060;29;20323;-79
2023/11/21 05:01:41;;;;;;;26.73;8.43;;;;;;;3.55;79.79;93689.63;4891965;29;20032;-79
2023/11/21 05:04:06;;;;;;;21.40;8.55;;;;;;;3.52;80.07;93677.00;4891840;29;20037;-79
2023/11/21 05:06:32;;;;;;;20.25;9.30;;;;;;;3.53;80.05;93683.06;4891768;29;20278;-79
2023/11/21 05:08:58;;;;;;;21.60;9.68;;;;;;;3.51;80.37;93698.34;4891780;29;20035;-79
2023/11/21 05:11:28;;;;;;;20.10;8.75;;;;;;;3.49;80.44;93689.94;4890614;29;20272;-79
2023/11/21 05:13:55;;;;;;;26.80;10.15;;;;;;;3.50;80.82;93680.97;4891767;29;20085;-80
2023/11/21 05:16:21;;;;;;;18.40;8.27;;;;;;;3.54;80.90;93676.72;4891710;29;20096;-77
2023/11/21 05:18:47;;;;;;;16.73;7.55;;;;;;;3.60;80.88;93681.72;4891888;29;20032;-78
2023/11/21 05:21:13;;;;;;;20.02;8.90;;;;;;;3.65;80.58;93680.88;4891392;29;20038;-78
2023/11/21 05:23:38;;;;;;;18.58;8.10;;;;;;;3.66;80.22;93671.13;4891457;29;20025;-78
2023/11/21 05:26:03;;;;;;;18.02;8.60;;;;;;;3.59;80.67;93679.34;4891676;29;20021;-78
2023/11/21 05:28:29;;;;;;;24.88;8.93;;;;;;;3.63;80.86;93677.72;4890503;29;20028;-79
2023/11/21 05:30:54;;;;;;;20.40;7.63;;;;;;;3.56;80.50;93683.31;4891413;29;20121;-79
2023/11/21 05:33:20;;;;;;;21.45;8.98;;;;;;;3.47;81.02;93677.03;4891493;29;20319;-78
2023/11/21 05:35:48;;;;;;;23.65;9.20;;;;;;;3.46;81.47;93680.75;4890290;29;20024;-78
2023/11/21 05:38:13;;;;;;;26.75;11.38;;;;;;;3.51;81.68;93690.47;4891307;29;20028;-78
2023/11/21 05:40:39;;;;;;;32.88;10.32;;;;;;;3.51;81.35;93685.97;4891347;29;20029;-78
2023/11/21 05:43:05;;;;;;;27.83;10.55;;;;;;;3.51;81.53;93703.63;4891352;29;20319;-77
2023/11/21 05:45:30;;;;;;;27.38;8.77;;;;;;;3.50;81.45;93696.78;4891132;29;20021;-77
2023/11/21 05:47:57;;;;;;;30.48;10.30;;;;;;;3.46;81.15;93701.00;4889895;29;20047;-79
2023/11/21 05:50:23;;;;;;;21.55;9.80;;;;;;;3.38;81.62;93690.00;4891489;29;20025;-79
2023/11/21 05:52:49;;;;;;;22.52;9.57;;;;;;;3.35;81.93;93690.53;4890223;29;20171;-78
2023/11/21 05:55:14;;;;;;;28.98;9.27;;;;;;;3.35;82.65;93687.09;4890443;29;20036;-79
2023/11/21 05:57:42;;;;;;;21.38;10.30;;;;;;;3.33;82.86;93679.47;4890195;29;20103;-79
2023/11/21 06:00:18;;;;;;;22.45;10.43;;;;;;;3.42;82.93;93685.75;4891545;29;20099;-79
2023/11/21 06:02:45;;;;;;;27.75;11.57;;;;;;;3.47;82.80;93690.22;4891943;29;20082;-79
2023/11/21 06:05:10;;;;;;;29.13;10.13;;;;;;;3.57;82.50;93692.00;4891365;29;20036;-79
2023/11/21 06:07:37;;;;;;;29.83;11.93;;;;;;;3.34;82.59;93686.34;4890806;29;20020;-79
2023/11/21 06:10:13;;;;;;;34.97;12.85;;;;;;;3.42;83.05;93684.97;4891170;29;20263;-79
2023/11/21 06:12:40;;;;;;;30.15;11.57;;;;;;;3.48;82.63;93694.44;4890794;29;20040;-79
2023/11/21 06:15:08;;;;;;;34.75;12.60;;;;;;;3.50;82.71;93696.78;4890912;29;20028;-80
2023/11/21 06:17:37;;;;;;;33.42;11.60;;;;;;;3.60;82.30;93701.97;4890532;29;20341;-80
2023/11/21 06:20:09;;;;;;;35.17;15.23;;;;;;;3.64;81.88;93705.66;4889572;29;20025;-79
2023/11/21 06:22:38;;;;;;;30.50;11.88;;;;;;;3.69;81.93;93700.34;4890996;29;20056;-80
2023/11/21 06:25:07;;;;;;;35.88;13.48;;;;;;;3.69;81.77;93707.50;4889301;29;20057;-79
2023/11/21 06:27:34;;;;;;;37.90;13.95;;;;;;;3.67;82.45;93702.47;4890768;29;20051;-77
2023/11/21 06:29:59;;;;;;;40.15;15.82;;;;;;;3.71;82.34;93695.59;4890406;29;20025;-76
2023/11/21 06:32:25;;;;;;;40.45;16.25;;;;;;;3.82;81.76;93699.72;4890095;29;20029;-77
2023/11/21 06:34:54;;;;;;;37.15;15.10;;;;;;;3.88;81.31;93716.31;4890265;29;20032;-77
2023/11/21 06:37:22;;;;;;;35.33;15.73;;;;;;;3.95;81.45;93710.75;4890547;29;20219;-79
2023/11/21 06:39:48;;;;;;;34.45;16.55;;;;;;;4.04;80.55;93716.22;4890471;29;20020;-78
2023/11/21 06:42:14;;;;;;;41.50;16.33;;;;;;;4.08;80.78;93722.50;4890356;29;20029;-79
2023/11/21 06:44:41;;;;;;;32.25;14.85;;;;;;;4.12;80.99;93721.69;4890170;29;20285;-78
2023/11/21 06:47:07;;;;;;;32.13;14.90;;;;;;;4.20;80.71;93725.59;4889878;29;20025;-80
2023/11/21 06:49:32;;;;;;;38.50;14.60;;;;;;;4.25;80.50;93728.16;4888817;29;20029;-79
2023/11/21 06:51:58;;;;;;;35.42;14.10;;;;;;;4.27;79.80;93730.53;4889980;29;20392;-78
2023/11/21 06:54:26;;;;;;;43.10;15.70;;;;;;;4.29;79.88;93731.03;4888786;29;20227;-79
2023/11/21 06:56:53;;;;;;;34.85;15.20;;;;;;;4.30;80.24;93717.59;4889822;29;20115;-78
2023/11/21 06:59:18;;;;;;;37.58;15.15;;;;;;;4.34;79.55;93726.53;4888609;29;20073;-78
2023/11/21 07:01:44;;;;;;;36.22;14.40;;;;;;;4.40;79.47;93724.63;4888846;29;20056;-78
2023/11/21 07:04:09;;;;;;;33.85;13.13;;;;;;;4.40;78.80;93729.91;4889783;29;20333;-77
2023/11/21 07:06:35;;;;;;;24.33;13.57;;;;;;;4.38;78.74;93732.81;4888801;29;20095;-78
2023/11/21 07:09:01;;;;;;;28.90;12.48;;;;;;;4.39;78.31;93733.59;4889815;29;20037;-79
2023/11/21 07:11:27;;;;;;;29.30;13.52;;;;;;;4.44;78.04;93728.28;4888446;29;20025;-79
2023/11/21 07:13:52;;;;;;;28.52;12.02;;;;;;;4.48;77.85;93712.66;4889769;29;20036;-81
2023/11/21 07:16:18;;;;;;;30.95;13.10;;;;;;;4.48;78.31;93713.47;4888647;29;20028;-80
2023/11/21 07:18:45;;;;;;;28.45;13.23;;;;;;;4.55;78.22;93708.66;4889505;29;20052;-80
2023/11/21 07:21:12;;;;;;;27.05;11.13;;;;;;;4.65;77.96;93717.53;4889154;29;20389;-76
2023/11/21 07:23:38;;;;;;;29.23;12.50;;;;;;;4.71;77.44;93717.22;4889282;29;20040;-81
2023/11/21 07:26:08;;;;;;;49.88;12.80;;;;;;;4.75;77.60;93720.88;4889560;29;20021;-80
2023/11/21 07:28:34;;;;;;;29.23;13.57;;;;;;;4.78;77.92;93715.03;4889366;29;20230;-80
2023/11/21 07:31:00;;;;;;;36.38;14.20;;;;;;;4.83;77.80;93716.84;4889347;29;20029;-80
2023/11/21 07:33:25;;;;;;;31.98;13.57;;;;;;;4.89;77.98;93720.22;4889260;29;20035;-80
2023/11/21 07:35:51;;;;;;;34.28;15.75;;;;;;;4.96;77.25;93724.06;4889168;29;20025;-80
2023/11/21 07:38:17;;;;;;;39.08;15.60;;;;;;;4.97;77.44;93730.94;4889247;29;20189;-80
2023/11/21 07:40:48;;;;;;;36.40;15.63;;;;;;;5.06;77.27;93717.91;4889033;29;20028;-80
2023/11/21 07:43:13;;;;;;;38.50;15.73;;;;;;;5.07;76.59;93732.69;4889162;29;20033;-82
2023/11/21 07:45:39;;;;;;;32.70;15.15;;;;;;;5.08;76.98;93730.84;4888064;29;20037;-78
2023/11/21 07:48:05;;;;;;;37.55;15.63;;;;;;;5.12;77.55;93719.41;4888958;29;20203;-74
2023/11/21 07:50:30;;;;;;;38.13;15.23;;;;;;;5.20;76.64;93720.66;4889008;29;20037;-68
2023/11/21 07:52:57;;;;;;;31.02;14.48;;;;;;;5.20;77.98;93723.28;4889001;29;20353;-70
2023/11/21 07:55:24;;;;;;;41.70;17.85;;;;;;;5.29;77.78;93713.69;4889159;29;20056;-80
2023/11/21 07:57:50;;;;;;;48.58;18.35;;;;;;;5.43;77.88;93716.41;4889027;29;20054;-81
2023/11/21 08:00:16;;;;;;;41.47;15.55;;;;;;;5.52;76.80;93706.00;4888869;29;20100;-81
2023/11/21 08:02:45;;;;;;;47.42;18.23;;;;;;;5.56;76.50;93701.72;4888756;29;20037;-81
2023/11/21 08:05:12;;;;;;;40.60;16.25;;;;;;;5.63;76.02;93694.97;4888967;29;20268;-80
2023/11/21 08:07:38;;;;;;;30.95;17.40;;;;;;;5.66;75.60;93698.13;4889171;29;20218;-87
2023/11/21 08:10:04;;;;;;;39.97;16.77;;;;;;;5.74;75.25;93703.59;4888277;29;20040;-88
2023/11/21 08:12:30;;;;;;;38.10;15.45;;;;;;;5.78;75.43;93698.47;4889322;29;20035;-87
2023/11/21 08:14:56;;;;;;;37.33;15.60;;;;;;;5.85;75.26;93706.06;4888083;29;20100;-88
2023/11/21 08:17:21;;;;;;;40.03;17.08;;;;;;;5.88;74.65;93698.34;4888228;29;20048;-91
2023/11/21 08:19:49;;;;;;;46.33;16.48;;;;;;;5.88;75.12;93706.28;4888884;29;20035;-91
2023/11/21 08:22:17;;;;;;;47.47;16.63;;;;;;;6.00;75.55;93693.44;4889568;29;20033;-91
2023/11/21 08:24:43;;;;;;;36.80;16.20;;;;;;;6.09;74.48;93690.94;4888569;29;20129;-91
2023/11/21 08:27:09;;;;;;;35.60;16.13;;;;;;;6.16;74.56;93701.91;4888669;29;20025;-91
2023/11/21 08:29:36;;;;;;;46.50;17.48;;;;;;;6.19;74.52;93711.94;4889528;29;20024;-91
2023/11/21 08:32:02;;;;;;;40.42;16.92;;;;;;;6.31;74.47;93698.25;4888719;29;20028;-88
2023/11/21 08:34:28;;;;;;;37.05;15.65;;;;;;;6.50;74.46;93690.25;4889856;29;20133;-90
2023/11/21 08:36:55;;;;;;;34.25;14.80;;;;;;;6.61;74.16;93683.72;4889548;29;20068;-90
2023/11/21 08:39:23;;;;;;;39.65;16.63;;;;;;;6.74;74.27;93705.22;4889730;29;20021;-90
2023/11/21 08:41:50;;;;;;;37.20;16.17;;;;;;;6.84;74.01;93686.50;4888518;29;20096;-90
2023/11/21 08:44:17;;;;;;;63.13;21.10;;;;;;;6.99;72.23;93688.84;4889972;29;20040;-91
2023/11/21 08:46:44;;;;;;;55.80;18.95;;;;;;;6.94;72.58;93694.25;4889390;29;20029;-91
2023/11/21 08:49:11;;;;;;;45.35;16.13;;;;;;;7.01;73.06;93691.19;4888551;29;20201;-91
2023/11/21 08:51:37;;;;;;;37.78;13.93;;;;;;;7.12;72.33;93692.56;4889559;29;20028;-89
2023/11/21 08:54:07;;;;;;;30.30;15.68;;;;;;;7.16;71.84;93687.47;4889278;29;20132;-88
2023/11/21 08:56:33;;;;;;;35.58;14.50;;;;;;;7.23;71.94;93688.66;4888316;29;20068;-82
2023/11/21 08:59:02;;;;;;;34.58;14.27;;;;;;;7.32;71.87;93680.78;4888546;29;20041;-85
2023/11/21 09:01:27;;;;;;;30.40;14.18;;;;;;;7.36;71.26;93668.50;4888438;29;20315;-87
2023/11/21 09:03:53;;;;;;;40.42;14.98;;;;;;;7.37;70.70;93667.44;4887939;29;20096;-88
2023/11/21 09:06:19;;;;;;;36.05;15.15;;;;;;;7.32;70.33;93659.56;4887519;29;20157;-84
2023/11/21 09:08:45;;;;;;;30.40;13.65;;;;;;;7.42;70.46;93645.31;4888147;29;20025;-83
2023/11/21 09:11:10;;;;;;;31.13;13.68;;;;;;;7.32;70.58;93635.69;4887293;29;20048;-89
2023/11/21 09:13:36;;;;;;;28.52;13.60;;;;;;;7.48;70.59;93638.81;4888512;29;20051;-84
2023/11/21 09:16:02;;;;;;;33.65;15.55;;;;;;;7.64;68.72;93636.63;4888325;29;20354;-90
2023/11/21 09:18:27;;;;;;;31.88;12.65;;;;;;;7.79;68.68;93640.78;4887016;29;20032;-81
2023/11/21 09:20:53;;;;;;;21.83;11.88;;;;;;;7.89;67.36;93621.19;4888366;29;20040;-86
2023/11/21 09:23:18;;;;;;;24.60;12.30;;;;;;;8.01;67.18;93610.81;4887471;29;20100;-84
2023/11/21 09:25:46;;;;;;;22.73;11.48;;;;;;;8.15;66.93;93622.16;4887249;29;20052;-82
2023/11/21 09:28:12;;;;;;;22.40;11.88;;;;;;;8.32;66.13;93602.09;4888191;29;20024;-88
2023/11/21 09:30:38;;;;;;;32.15;13.00;;;;;;;8.48;65.73;93595.34;4890801;29;20323;-84
2023/11/21 09:33:08;;;;;;;28.00;11.80;;;;;;;8.60;65.53;93595.53;4891638;29;20055;-85
2023/11/21 09:35:33;;;;;;;28.95;12.35;;;;;;;8.72;65.25;93578.25;4890539;29;20056;-82
2023/11/21 09:38:01;;;;;;;30.55;13.05;;;;;;;8.88;65.06;93573.31;4891449;29;20084;-85
2023/11/21 09:40:26;;;;;;;33.03;11.80;;;;;;;9.07;64.17;93575.69;4890478;29;20331;-86
2023/11/21 09:42:59;;;;;;;33.42;12.55;;;;;;;9.17;63.22;93581.47;4891298;29;20064;-81
2023/11/21 09:45:27;;;;;;;27.20;12.50;;;;;;;9.27;62.62;93575.09;4891623;29;20036;-86
2023/11/21 09:48:03;;;;;;;26.85;13.10;;;;;;;9.32;62.49;93553.66;4891575;29;20326;-85
2023/11/21 09:50:32;;;;;;;25.33;12.07;;;;;;;9.42;62.14;93549.91;4890309;29;20031;-91
2023/11/21 09:53:10;;;;;;;27.48;11.27;;;;;;;9.51;61.62;93547.25;4890238;29;20151;-78
2023/11/21 09:55:38;;;;;;;40.30;12.23;;;;;;;9.57;61.72;93544.13;4891467;29;20060;-81
2023/11/21 09:58:07;;;;;;;43.72;12.77;;;;;;;9.73;61.15;93532.97;4891173;29;20025;-77
2023/11/21 10:00:33;;;;;;;27.42;11.02;;;;;;;9.86;60.99;93523.28;4890889;29;20021;-82
2023/11/21 10:03:02;;;;;;;28.33;12.43;;;;;;;10.01;60.71;93533.41;4891679;29;20048;-89
2023/11/21 10:05:28;;;;;;;29.25;12.40;;;;;;;10.18;60.03;93527.28;4891095;29;20021;-83
2023/11/21 10:07:57;;;;;;;28.33;11.88;;;;;;;10.30;59.94;93518.63;4890692;29;20093;-83
2023/11/21 10:10:25;;;;;;;27.25;11.60;;;;;;;10.39;58.54;93520.16;4890616;29;20028;-81
2023/11/21 10:12:55;;;;;;;31.25;12.13;;;;;;;10.52;58.00;93521.06;4890761;29;20064;-81
2023/11/21 10:15:26;;;;;;;30.17;11.98;;;;;;;10.70;57.99;93521.75;4890636;29;20033;-79
2023/11/21 10:17:53;;;;;;;33.03;12.73;;;;;;;10.75;57.10;93510.13;4890676;29;20349;-81
2023/11/21 10:20:24;;;;;;;37.65;11.98;;;;;;;10.87;56.45;93502.22;4889510;29;20059;-88
2023/11/21 10:22:50;;;;;;;27.08;11.27;;;;;;;10.95;56.73;93501.41;4891624;29;20037;-88
2023/11/21 10:25:16;;;;;;;36.80;12.27;;;;;;;10.98;56.66;93495.41;4892027;29;20080;-91
2023/11/21 10:27:43;;;;;;;28.85;10.25;;;;;;;11.06;55.96;93495.69;4891994;29;20039;-91
2023/11/21 10:30:13;;;;;;;17.17;8.45;;;;;;;11.10;54.35;93491.25;4891227;29;20063;-91
2023/11/21 10:32:40;;;;;;;25.58;8.60;;;;;;;11.14;53.68;93502.84;4890771;29;20057;-88
2023/11/21 10:35:12;;;;;;;23.30;8.57;;;;;;;11.13;53.18;93496.69;4891548;29;20032;-91
2023/11/21 10:37:42;;;;;;;;;;;;;;;11.00;53.23;93498.53;4890982;29;20021;-92
2023/11/21 10:40:13;;;;;;;24.40;8.10;;;;;;;10.86;53.45;93492.66;4890436;29;19907;-93
2023/11/21 10:42:40;;;;;;;19.27;7.70;;;;;;;10.86;53.85;93487.31;4892053;29;20029;-92
2023/11/21 10:45:29;;;;;;;18.23;7.70;;;;;;;10.92;53.52;93479.91;4891283;29;20164;-92
2023/11/21 10:47:56;;;;;;;14.18;7.53;;;;;;;10.92;52.87;93482.59;4889691;29;20031;-86
2023/11/21 10:50:21;;;;;;;14.60;7.38;;;;;;;10.83;53.03;93485.31;4890470;29;20184;-84
2023/11/21 10:52:47;;;;;;;14.55;6.95;;;;;;;10.82;52.97;93481.06;4889898;29;20032;-85
2023/11/21 10:55:21;;;;;;;19.73;8.38;;;;;;;10.87;53.00;93477.44;4890127;29;20025;-84
2023/11/21 10:57:50;;;;;;;20.42;6.97;;;;;;;10.82;53.59;93473.84;4889912;29;20100;-83
2023/11/21 11:00:20;;;;;;;15.82;6.07;;;;;;;10.76;53.17;93474.38;4889325;29;20033;-81
2023/11/21 11:02:48;;;;;;;13.95;6.43;;;;;;;10.70;53.36;93463.09;4889982;29;20024;-81
2023/11/21 11:05:19;;;;;;;15.27;6.93;;;;;;;10.68;52.86;93459.97;4889815;29;20028;-85
2023/11/21 11:07:46;;;;;;;19.27;6.90;;;;;;;10.60;53.29;93455.47;4890146;29;20037;-81
2023/11/21 11:10:14;;;;;;;18.13;8.23;;;;;;;10.62;53.96;93461.28;4889777;29;20021;-81
2023/11/21 11:12:41;;;;;;;21.08;7.88;;;;;;;10.64;53.84;93459.06;4888740;29;20032;-82
2023/11/21 11:15:09;;;;;;;15.32;7.93;;;;;;;10.67;53.90;93457.66;4889702;29;20120;-82
2023/11/21 11:17:41;;;;;;;27.00;7.50;;;;;;;10.67;53.34;93452.34;4889750;29;20057;-81
2023/11/21 11:20:10;;;;;;;23.08;9.85;;;;;;;10.69;53.13;93442.13;4889505;29;20092;-82
2023/11/21 11:23:13;;;;;;;22.40;7.72;;;;;;;10.64;54.59;93427.09;4889766;29;20029;-82
2023/11/21 11:25:44;;;;;;;;;;;;;;;10.74;54.60;93424.03;4889670;29;20076;-82
2023/11/21 11:28:30;;;;;;;21.08;7.18;;;;;;;10.81;54.68;93421.66;4889585;29;19986;-82